Main page
METAR-TAF:

METAR-TAF

Airports :

Afyon Airport

Afyonkarahisar, Turkey

latitude: 38-45N, longitude: 030-32E, elevation: 1034 m

METAR: missing

Time: 01:27 (22:27 UTC)

Forecast

The report was made 8 hours and 47 minutes ago, at 13:40 UTC
Forecast valid from 01 at 15 UTC to 01 at 24 UTC
Wind 2 kt from variable directions
Visibility 10 km or more
Scattered clouds at a height of 4000 ft
Scattered clouds at a height of 10000 ft
Temporary
from 01 at 15 UTC to 01 at 18 UTC
Few clouds at a height of 2500 ft, Towering cumulus.
Broken clouds at a height of 3500 ft
light rain showers

TAF: LTAH 011340Z 0115/0124 VRB02KT 9999 SCT040 SCT100 TEMPO 0115/0118 -SHRA FEW025TCU BKN035

Weather observations and forecasts of more than 4000 airports (METAR and TAF reports).

The available stations are represented by yellow and red dots on the map.

Hover mouse over dot to see the name of the station.

Then click to see weather observations and forecasts.

To change the map : click on the green buttons with a black cross to zoom in, on the green button with a dash to zoom out, or on the green arrows for adjacent maps.


METAR-TAF: